Time;durP1;ratioP1;P1;durP2;ratioP2;P2;SDS_P1;SDS_P2;PMS_P1;PMS_P2;Temp;Humidity;BMP_temperature;BMP_pressure;BME280_temperature;BME280_humidity;BME280_pressure;Samples;Min_cycle;Max_cycle;Signal;HPM_P1;HPM_P2
2022/10/14 00:01:22;;;;;;;;;;;23.00;93.50;;;;;;5092154;28;19966;-76
2022/10/14 00:03:49;;;;;;;;;;;23.00;93.50;;;;;;5091727;28;19908;-73
2022/10/14 00:06:18;;;;;;;;;;;22.90;92.30;;;;;;5088109;28;19908;-79
2022/10/14 00:08:46;;;;;;;;;;;23.00;92.60;;;;;;5080341;28;19908;-72
2022/10/14 00:11:17;;;;;;;;;;;23.10;91.80;;;;;;5087327;28;19909;-71
2022/10/14 00:13:44;;;;;;;;;;;23.10;91.30;;;;;;5091468;28;19946;-75
2022/10/14 00:16:24;;;;;;;;;;;23.20;90.40;;;;;;5091901;28;19943;-75
2022/10/14 00:18:51;;;;;;;;;;;23.20;89.70;;;;;;5091954;28;19916;-73
2022/10/14 00:21:18;;;;;;;;;;;23.40;90.20;;;;;;5092299;28;19912;-76
2022/10/14 00:23:45;;;;;;;;;;;23.50;87.20;;;;;;5092058;28;19916;-73
2022/10/14 00:26:19;;;;;;;;;;;23.70;88.30;;;;;;5091941;28;19991;-78
2022/10/14 00:28:46;;;;;;;;;;;23.90;88.30;;;;;;5090851;28;19995;-73
2022/10/14 00:31:13;;;;;;;;;;;23.90;87.10;;;;;;5091671;28;19947;-72
2022/10/14 00:33:40;;;;;;;;;;;23.90;87.70;;;;;;5072641;28;19999;-71
2022/10/14 00:36:07;;;;;;;;;;;24.00;86.90;;;;;;5091893;28;20449;-74
2022/10/14 00:38:34;;;;;;;;;;;24.10;85.30;;;;;;5092722;28;19954;-74
2022/10/14 00:41:01;;;;;;;;;;;24.30;85.60;;;;;;5092220;28;19920;-75
2022/10/14 00:43:28;;;;;;;;;;;24.30;84.70;;;;;;5092510;28;19909;-77
2022/10/14 00:45:55;;;;;;;;;;;24.20;83.10;;;;;;5091546;28;19915;-73
2022/10/14 00:48:24;;;;;;;;;;;24.30;83.30;;;;;;5092504;28;19912;-72
2022/10/14 00:50:54;;;;;;;;;;;24.30;82.50;;;;;;5092035;28;20314;-73
2022/10/14 00:53:21;;;;;;;;;;;24.40;82.30;;;;;;5091111;28;19908;-72
2022/10/14 00:55:48;;;;;;;;;;;24.40;79.60;;;;;;5090798;28;19916;-77
2022/10/14 00:58:14;;;;;;;;;;;24.40;80.70;;;;;;5091803;28;19918;-75
2022/10/14 01:00:41;;;;;;;;;;;24.40;79.80;;;;;;5092615;28;19912;-76
2022/10/14 01:03:09;;;;;;;;;;;24.40;79.60;;;;;;5091777;28;20246;-75
2022/10/14 01:05:40;;;;;;;;;;;24.50;79.60;;;;;;5091118;28;20343;-74
2022/10/14 01:08:14;;;;;;;;;;;24.70;79.10;;;;;;5072824;28;19935;-78
2022/10/14 01:10:43;;;;;;;;;;;24.70;78.50;;;;;;5092621;28;19915;-78
2022/10/14 01:13:17;;;;;;;;;;;24.80;78.80;;;;;;5094082;28;19970;-79
2022/10/14 01:15:51;;;;;;;;;;;24.90;78.40;;;;;;5090758;28;19912;-73
2022/10/14 01:18:24;;;;;;;;;;;25.00;76.50;;;;;;5073112;28;19962;-76
2022/10/14 01:21:02;;;;;;;;;;;25.10;76.70;;;;;;5091805;28;19908;-79
2022/10/14 01:23:29;;;;;;;;;;;25.10;74.80;;;;;;5091385;28;19994;-78
2022/10/14 01:25:56;;;;;;;;;;;24.80;75.20;;;;;;5091316;28;19981;-74
2022/10/14 01:28:26;;;;;;;;;;;24.70;74.60;;;;;;5091382;28;20303;-76
2022/10/14 01:31:16;;;;;;;;;;;24.70;74.30;;;;;;5091637;28;19908;-76
2022/10/14 01:33:44;;;;;;;;;;;24.70;75.50;;;;;;5090715;28;19908;-73
2022/10/14 01:36:17;;;;;;;;;;;24.90;74.60;;;;;;5087229;28;19936;-81
2022/10/14 01:38:47;;;;;;;;;;;25.30;75.00;;;;;;5090129;28;20384;-80
2022/10/14 01:41:19;;;;;;;;;;;25.60;73.00;;;;;;5090722;28;19912;-75
2022/10/14 01:43:47;;;;;;;;;;;25.60;72.90;;;;;;5069021;28;19908;-75
2022/10/14 01:46:15;;;;;;;;;;;25.60;73.30;;;;;;5065133;28;19919;-75
2022/10/14 01:48:44;;;;;;;;;;;25.80;73.90;;;;;;5085581;28;19908;-72
2022/10/14 01:51:13;;;;;;;;;;;25.90;69.10;;;;;;5091685;28;19908;-74
2022/10/14 01:53:43;;;;;;;;;;;25.90;69.40;;;;;;5089782;28;19956;-75
2022/10/14 01:56:11;;;;;;;;;;;26.10;72.10;;;;;;5072772;28;19920;-77
2022/10/14 01:58:38;;;;;;;;;;;26.30;70.00;;;;;;5091889;28;19966;-77
2022/10/14 02:01:07;;;;;;;;;;;26.20;68.70;;;;;;5091382;28;19962;-82
2022/10/14 02:03:41;;;;;;;;;;;26.20;68.50;;;;;;5093499;28;20349;-79
2022/10/14 02:06:14;;;;;;;;;;;26.20;68.40;;;;;;5094486;28;19923;-76
2022/10/14 02:08:47;;;;;;;;;;;26.30;67.60;;;;;;5075968;28;19913;-78
2022/10/14 02:11:17;;;;;;;;;;;26.40;67.60;;;;;;5096747;28;20387;-76
2022/10/14 02:13:50;;;;;;;;;;;26.40;65.80;;;;;;5096604;28;20392;-75
2022/10/14 02:16:17;;;;;;;;;;;26.40;64.80;;;;;;5098423;28;19923;-75
2022/10/14 02:18:46;;;;;;;;;;;26.50;64.50;;;;;;5098741;28;19908;-75
2022/10/14 02:21:33;;;;;;;;;;;26.50;63.40;;;;;;5100189;28;20490;-74
2022/10/14 02:24:03;;;;;;;;;;;26.40;62.80;;;;;;5081323;28;20340;-75
2022/10/14 02:26:30;;;;;;;;;;;26.40;61.50;;;;;;5101275;28;19915;-79
2022/10/14 02:28:57;;;;;;;;;;;26.40;62.90;;;;;;5103075;28;19999;-75
2022/10/14 02:31:25;;;;;;;;;;;26.70;61.80;;;;;;5098309;28;20400;-75
2022/10/14 02:33:53;;;;;;;;;;;27.00;63.60;;;;;;5097735;28;20299;-77
2022/10/14 02:36:22;;;;;;;;;;;27.30;62.00;;;;;;5095343;28;19920;-75
2022/10/14 02:38:49;;;;;;;;;;;27.20;61.00;;;;;;5096536;28;19916;-74
2022/10/14 02:41:19;;;;;;;;;;;27.40;60.80;;;;;;5096697;28;19908;-75
2022/10/14 02:43:45;;;;;;;;;;;27.60;60.30;;;;;;5095865;28;19909;-77
2022/10/14 02:46:12;;;;;;;;;;;27.80;59.60;;;;;;5089513;28;19920;-76
2022/10/14 02:48:39;;;;;;;;;;;27.80;58.50;;;;;;5094873;28;19919;-74
2022/10/14 02:51:05;;;;;;;;;;;28.20;59.50;;;;;;5094223;28;19908;-73
2022/10/14 02:53:32;;;;;;;;;;;28.70;57.20;;;;;;5093640;28;19950;-75
2022/10/14 02:55:59;;;;;;;;;;;29.10;55.90;;;;;;5094879;28;19912;-74
2022/10/14 02:58:25;;;;;;;;;;;29.20;55.40;;;;;;5094412;28;19915;-76
2022/10/14 03:00:52;;;;;;;;;;;29.50;53.80;;;;;;5094075;28;19922;-79
2022/10/14 03:03:19;;;;;;;;;;;29.70;53.50;;;;;;5094026;28;20407;-74
2022/10/14 03:05:45;;;;;;;;;;;30.10;50.40;;;;;;5094065;28;19908;-75
2022/10/14 03:08:12;;;;;;;;;;;30.00;51.00;;;;;;5093220;28;20314;-73
2022/10/14 03:10:39;;;;;;;;;;;30.50;49.80;;;;;;5093686;28;19916;-74
2022/10/14 03:13:05;;;;;;;;;;;30.80;48.30;;;;;;5091696;28;19919;-74
2022/10/14 03:15:32;;;;;;;;;;;30.80;47.00;;;;;;5092999;28;19908;-74
2022/10/14 03:17:59;;;;;;;;;;;30.90;47.90;;;;;;5093618;28;19924;-73
2022/10/14 03:20:25;;;;;;;;;;;31.20;46.90;;;;;;5093038;28;19908;-74
2022/10/14 03:22:52;;;;;;;;;;;31.50;46.70;;;;;;5091535;28;20391;-73
2022/10/14 03:25:18;;;;;;;;;;;31.40;45.80;;;;;;5093265;28;20015;-73
2022/10/14 03:27:45;;;;;;;;;;;31.50;45.40;;;;;;5093250;28;19908;-71
2022/10/14 03:30:12;;;;;;;;;;;31.50;44.60;;;;;;5093240;28;19965;-72
2022/10/14 03:32:38;;;;;;;;;;;31.80;45.20;;;;;;5093141;28;19912;-78
2022/10/14 03:35:05;;;;;;;;;;;32.00;44.20;;;;;;5074496;28;20299;-73
2022/10/14 03:37:32;;;;;;;;;;;31.90;44.10;;;;;;5093142;28;19923;-75
2022/10/14 03:39:58;;;;;;;;;;;32.10;44.80;;;;;;5093206;28;19944;-75
2022/10/14 03:42:25;;;;;;;;;;;32.00;44.40;;;;;;5091710;28;20407;-72
2022/10/14 03:44:51;;;;;;;;;;;32.10;46.20;;;;;;5092637;28;19990;-72
2022/10/14 03:47:18;;;;;;;;;;;32.10;43.30;;;;;;5093034;28;19912;-78
2022/10/14 03:49:45;;;;;;;;;;;32.00;43.90;;;;;;5092957;28;20279;-74
2022/10/14 03:52:11;;;;;;;;;;;32.20;43.90;;;;;;5091300;28;19935;-77
2022/10/14 03:54:39;;;;;;;;;;;32.40;42.90;;;;;;5091181;28;19912;-75
2022/10/14 03:57:05;;;;;;;;;;;32.20;42.90;;;;;;5070019;28;20304;-76
2022/10/14 03:59:32;;;;;;;;;;;31.80;42.70;;;;;;5092339;28;19908;-78
2022/10/14 04:01:58;;;;;;;;;;;31.80;43.40;;;;;;5091817;28;19908;-81
2022/10/14 04:04:25;;;;;;;;;;;31.60;44.20;;;;;;5091905;28;19908;-82
2022/10/14 04:06:55;;;;;;;;;;;31.00;44.30;;;;;;5092079;28;19953;-73
2022/10/14 04:09:21;;;;;;;;;;;31.00;47.50;;;;;;5091986;28;19915;-73
2022/10/14 04:11:48;;;;;;;;;;;31.50;45.20;;;;;;5091611;28;20356;-75
2022/10/14 04:14:14;;;;;;;;;;;32.20;46.30;;;;;;5073946;28;19920;-79
2022/10/14 04:16:41;;;;;;;;;;;32.30;46.30;;;;;;5091709;28;20364;-76
2022/10/14 04:19:08;;;;;;;;;;;32.10;45.00;;;;;;5091925;28;19946;-83
2022/10/14 04:21:35;;;;;;;;;;;32.50;45.60;;;;;;5074194;28;19934;-76
2022/10/14 04:24:01;;;;;;;;;;;32.80;45.70;;;;;;5091674;28;19912;-73
2022/10/14 04:26:28;;;;;;;;;;;32.90;47.10;;;;;;5092363;28;19908;-76
2022/10/14 04:28:55;;;;;;;;;;;32.60;44.60;;;;;;5089573;28;19920;-76
2022/10/14 04:31:21;;;;;;;;;;;32.80;44.50;;;;;;5091481;28;19961;-75
2022/10/14 04:33:48;;;;;;;;;;;32.90;45.20;;;;;;5091791;28;19917;-80
2022/10/14 04:36:15;;;;;;;;;;;32.40;44.90;;;;;;5091455;28;19927;-76
2022/10/14 04:38:41;;;;;;;;;;;31.70;45.00;;;;;;5092569;28;19944;-74
2022/10/14 04:41:08;;;;;;;;;;;31.00;47.20;;;;;;5091123;28;19912;-73
2022/10/14 04:43:35;;;;;;;;;;;30.40;47.50;;;;;;5091523;28;19908;-72
2022/10/14 04:46:01;;;;;;;;;;;29.80;47.20;;;;;;5088506;28;19920;-75
2022/10/14 04:48:28;;;;;;;;;;;29.20;48.90;;;;;;5083944;28;19917;-77
2022/10/14 04:50:56;;;;;;;;;;;28.50;49.40;;;;;;5072459;28;19912;-74
2022/10/14 04:53:23;;;;;;;;;;;28.60;50.90;;;;;;5090857;28;19908;-80
2022/10/14 04:55:50;;;;;;;;;;;29.50;49.30;;;;;;5090786;28;19912;-80
2022/10/14 04:58:17;;;;;;;;;;;30.10;47.70;;;;;;5090879;28;20360;-79
2022/10/14 05:00:44;;;;;;;;;;;30.40;47.50;;;;;;5092293;28;19916;-78
2022/10/14 05:03:10;;;;;;;;;;;30.70;47.10;;;;;;5085323;28;19918;-81
2022/10/14 05:05:37;;;;;;;;;;;30.60;47.50;;;;;;5085420;28;19916;-73
2022/10/14 05:08:04;;;;;;;;;;;30.20;47.80;;;;;;5091128;28;19918;-76
2022/10/14 05:10:34;;;;;;;;;;;30.00;48.20;;;;;;5086273;28;19923;-79
2022/10/14 05:13:01;;;;;;;;;;;29.50;48.70;;;;;;5090082;28;19954;-82
2022/10/14 05:15:27;;;;;;;;;;;29.00;48.20;;;;;;5090725;28;19928;-80
2022/10/14 05:17:54;;;;;;;;;;;28.70;48.90;;;;;;5090320;28;19920;-76
2022/10/14 05:20:21;;;;;;;;;;;28.60;50.00;;;;;;5090153;28;19912;-82
2022/10/14 05:22:47;;;;;;;;;;;28.20;49.90;;;;;;5091160;28;19912;-79
2022/10/14 05:25:14;;;;;;;;;;;27.90;50.70;;;;;;5091235;28;19912;-78
2022/10/14 05:27:41;;;;;;;;;;;27.40;50.20;;;;;;5092149;28;19912;-77
2022/10/14 05:30:08;;;;;;;;;;;26.90;50.20;;;;;;5087192;28;20387;-83
2022/10/14 05:32:35;;;;;;;;;;;26.30;52.20;;;;;;5079782;28;19924;-81
2022/10/14 05:35:01;;;;;;;;;;;25.90;52.90;;;;;;5080929;28;19965;-80
2022/10/14 05:37:28;;;;;;;;;;;25.80;53.50;;;;;;5080540;28;19920;-77
2022/10/14 05:39:55;;;;;;;;;;;25.70;52.20;;;;;;5093409;28;19967;-77
2022/10/14 05:42:22;;;;;;;;;;;25.70;51.60;;;;;;5094394;28;19912;-81
2022/10/14 05:44:53;;;;;;;;;;;26.00;52.00;;;;;;5095189;28;19916;-85
2022/10/14 05:47:20;;;;;;;;;;;27.00;51.80;;;;;;5096795;28;19908;-80
2022/10/14 05:49:46;;;;;;;;;;;28.00;50.00;;;;;;5096385;28;19912;-84
2022/10/14 05:52:13;;;;;;;;;;;28.90;48.60;;;;;;5093314;28;19916;-76
2022/10/14 05:54:40;;;;;;;;;;;29.60;47.80;;;;;;5091979;28;19930;-74
2022/10/14 05:57:06;;;;;;;;;;;30.20;48.40;;;;;;5075851;28;20394;-80
2022/10/14 05:59:36;;;;;;;;;;;30.60;47.00;;;;;;5096700;28;19912;-83
2022/10/14 06:02:03;;;;;;;;;;;30.80;46.80;;;;;;5095185;28;19961;-81
2022/10/14 06:04:29;;;;;;;;;;;31.30;46.10;;;;;;5091880;28;19985;-76
2022/10/14 06:06:57;;;;;;;;;;;31.30;46.90;;;;;;5091266;28;19919;-74
2022/10/14 06:09:24;;;;;;;;;;;31.30;46.80;;;;;;5091118;28;19931;-73
2022/10/14 06:11:51;;;;;;;;;;;31.40;47.50;;;;;;5093496;28;19916;-74
2022/10/14 06:14:18;;;;;;;;;;;31.80;47.30;;;;;;5093916;28;20402;-78
2022/10/14 06:16:51;;;;;;;;;;;31.50;47.10;;;;;;5093933;28;19967;-71
2022/10/14 06:19:17;;;;;;;;;;;30.80;47.60;;;;;;5093778;28;19908;-71
2022/10/14 06:21:44;;;;;;;;;;;30.00;48.40;;;;;;5074488;28;20011;-76
2022/10/14 06:24:11;;;;;;;;;;;29.20;49.40;;;;;;5091800;28;19909;-72
2022/10/14 06:26:38;;;;;;;;;;;28.70;49.30;;;;;;5091838;28;19916;-73
2022/10/14 06:29:04;;;;;;;;;;;28.20;49.50;;;;;;5090317;28;19912;-74
2022/10/14 06:31:31;;;;;;;;;;;27.60;50.60;;;;;;5090300;28;19909;-69
2022/10/14 06:33:58;;;;;;;;;;;27.00;51.30;;;;;;5090388;28;19915;-71
2022/10/14 06:36:24;;;;;;;;;;;26.60;51.40;;;;;;5090513;28;20509;-73
2022/10/14 06:38:51;;;;;;;;;;;26.30;52.20;;;;;;5071999;28;19931;-71
2022/10/14 06:41:18;;;;;;;;;;;26.30;52.10;;;;;;5089756;28;19909;-72
2022/10/14 06:43:45;;;;;;;;;;;26.30;52.70;;;;;;5089732;28;19908;-72
2022/10/14 06:46:12;;;;;;;;;;;26.20;52.40;;;;;;5093297;28;19909;-78
2022/10/14 06:48:38;;;;;;;;;;;25.90;53.00;;;;;;5073826;28;20011;-76
2022/10/14 06:51:05;;;;;;;;;;;25.70;53.70;;;;;;5091282;28;19912;-77
2022/10/14 06:53:32;;;;;;;;;;;25.90;52.90;;;;;;5093297;28;19908;-74
2022/10/14 06:56:03;;;;;;;;;;;26.40;53.60;;;;;;5093205;28;20013;-76
2022/10/14 06:58:30;;;;;;;;;;;26.70;53.40;;;;;;5093706;28;19971;-77
2022/10/14 07:01:01;;;;;;;;;;;26.70;53.70;;;;;;5093172;28;19957;-76
2022/10/14 07:03:28;;;;;;;;;;;26.40;54.30;;;;;;5092829;28;20400;-72
2022/10/14 07:05:54;;;;;;;;;;;26.30;54.90;;;;;;5093238;28;19908;-77
2022/10/14 07:08:21;;;;;;;;;;;26.30;54.70;;;;;;5075144;28;20366;-76
2022/10/14 07:10:48;;;;;;;;;;;26.50;54.20;;;;;;5093194;28;19908;-76
2022/10/14 07:13:14;;;;;;;;;;;26.40;52.90;;;;;;5093553;28;20272;-77
2022/10/14 07:15:41;;;;;;;;;;;26.20;52.90;;;;;;5093118;28;19912;-76
2022/10/14 07:18:08;;;;;;;;;;;25.80;52.40;;;;;;5093301;28;19931;-78
2022/10/14 07:20:34;;;;;;;;;;;25.30;53.40;;;;;;5093548;28;20280;-76
2022/10/14 07:23:01;;;;;;;;;;;25.00;54.80;;;;;;5093469;28;19908;-78
2022/10/14 07:25:28;;;;;;;;;;;24.60;55.10;;;;;;5094039;28;19908;-70
2022/10/14 07:27:54;;;;;;;;;;;24.30;55.20;;;;;;5093317;28;20288;-76
2022/10/14 07:30:21;;;;;;;;;;;23.90;56.30;;;;;;5075133;28;19908;-75
2022/10/14 07:32:48;;;;;;;;;;;23.70;56.90;;;;;;5093451;28;19918;-74
2022/10/14 07:35:15;;;;;;;;;;;23.50;57.30;;;;;;5093350;28;19947;-71
2022/10/14 07:37:42;;;;;;;;;;;23.30;58.20;;;;;;5092798;28;19926;-75
2022/10/14 07:40:09;;;;;;;;;;;23.20;57.80;;;;;;5093184;28;19912;-76
2022/10/14 07:42:35;;;;;;;;;;;23.00;58.10;;;;;;5093527;28;20431;-80
2022/10/14 07:45:04;;;;;;;;;;;22.80;58.60;;;;;;5093307;28;19908;-75
2022/10/14 07:47:32;;;;;;;;;;;22.70;58.90;;;;;;5092779;28;19953;-79
2022/10/14 07:50:02;;;;;;;;;;;22.50;59.30;;;;;;5093663;28;19912;-82
2022/10/14 07:52:28;;;;;;;;;;;22.30;59.40;;;;;;5092798;28;19999;-77
2022/10/14 07:54:55;;;;;;;;;;;22.20;59.60;;;;;;5093289;28;19927;-78
2022/10/14 07:57:22;;;;;;;;;;;22.10;60.40;;;;;;5092681;28;19916;-76
2022/10/14 07:59:51;;;;;;;;;;;22.00;60.00;;;;;;5092919;28;19916;-79
2022/10/14 08:02:18;;;;;;;;;;;21.80;60.50;;;;;;5092901;28;20386;-77
2022/10/14 08:04:51;;;;;;;;;;;21.70;60.70;;;;;;5093480;28;19908;-74
2022/10/14 08:07:21;;;;;;;;;;;21.60;61.40;;;;;;5092795;28;19908;-74
2022/10/14 08:09:48;;;;;;;;;;;21.40;61.70;;;;;;5092591;28;20369;-76
2022/10/14 08:12:16;;;;;;;;;;;21.30;61.90;;;;;;5081085;28;19912;-76
2022/10/14 08:14:43;;;;;;;;;;;21.20;62.40;;;;;;5092021;28;19924;-79
2022/10/14 08:17:09;;;;;;;;;;;21.10;62.70;;;;;;5092487;28;19916;-73
2022/10/14 08:19:36;;;;;;;;;;;21.10;63.30;;;;;;5091981;28;19908;-75
2022/10/14 08:22:03;;;;;;;;;;;21.00;63.30;;;;;;5091824;28;19941;-78
2022/10/14 08:24:29;;;;;;;;;;;21.00;63.80;;;;;;5073473;28;20273;-76
2022/10/14 08:26:57;;;;;;;;;;;20.90;64.00;;;;;;5092192;28;19908;-80
2022/10/14 08:29:25;;;;;;;;;;;20.80;64.20;;;;;;5091596;28;20281;-80
2022/10/14 08:31:54;;;;;;;;;;;20.80;64.40;;;;;;5092281;28;19916;-78
2022/10/14 08:34:22;;;;;;;;;;;20.70;64.80;;;;;;5092441;28;20318;-85
2022/10/14 08:36:50;;;;;;;;;;;20.60;65.80;;;;;;5092478;28;20010;-75
2022/10/14 08:39:20;;;;;;;;;;;20.60;65.80;;;;;;5091807;28;19966;-80
2022/10/14 08:41:46;;;;;;;;;;;20.60;66.20;;;;;;5074346;28;19954;-82
2022/10/14 08:44:16;;;;;;;;;;;20.50;66.30;;;;;;5091956;28;19908;-78
2022/10/14 08:46:46;;;;;;;;;;;20.50;66.80;;;;;;5091922;28;19908;-75
2022/10/14 08:49:25;;;;;;;;;;;20.40;66.50;;;;;;5092323;28;20361;-71
2022/10/14 08:52:14;;;;;;;;;;;20.30;66.20;;;;;;5071916;28;19923;-73
2022/10/14 08:54:43;;;;;;;;;;;20.20;66.60;;;;;;5074858;28;19912;-75
2022/10/14 08:57:18;;;;;;;;;;;20.20;66.10;;;;;;5091736;28;20431;-84
2022/10/14 08:59:44;;;;;;;;;;;20.10;66.10;;;;;;5090824;28;19915;-82
2022/10/14 09:02:26;;;;;;;;;;;20.10;66.20;;;;;;5089931;28;20010;-73
2022/10/14 09:04:53;;;;;;;;;;;20.10;66.80;;;;;;5091821;28;19908;-73
2022/10/14 09:07:20;;;;;;;;;;;20.10;66.20;;;;;;5091659;28;19908;-77
2022/10/14 09:09:49;;;;;;;;;;;20.00;66.70;;;;;;5091176;28;19907;-78
2022/10/14 09:12:19;;;;;;;;;;;20.00;66.30;;;;;;5093788;28;20360;-78
2022/10/14 09:14:47;;;;;;;;;;;20.00;66.60;;;;;;5094801;28;19974;-75
2022/10/14 09:17:21;;;;;;;;;;;20.00;66.90;;;;;;5094820;28;20288;-79
2022/10/14 09:19:53;;;;;;;;;;;20.00;65.90;;;;;;5094226;28;20011;-80
2022/10/14 09:22:20;;;;;;;;;;;20.00;66.00;;;;;;5095899;28;19915;-78
2022/10/14 09:24:49;;;;;;;;;;;19.90;65.10;;;;;;5095937;28;19912;-76
2022/10/14 09:27:20;;;;;;;;;;;19.90;65.20;;;;;;5095492;28;19912;-80
2022/10/14 09:29:50;;;;;;;;;;;19.90;65.00;;;;;;5095588;28;19908;-78
2022/10/14 09:32:25;;;;;;;;;;;19.90;65.10;;;;;;5096019;28;19908;-76
2022/10/14 09:34:52;;;;;;;;;;;19.80;65.40;;;;;;5096181;28;19909;-78
2022/10/14 09:37:45;;;;;;;;;;;19.80;65.70;;;;;;5096125;28;19920;-80
2022/10/14 09:40:11;;;;;;;;;;;19.70;66.60;;;;;;5091270;28;19908;-73
2022/10/14 09:42:44;;;;;;;;;;;19.70;67.00;;;;;;5091825;28;19913;-72
2022/10/14 09:45:17;;;;;;;;;;;19.70;66.80;;;;;;5092987;28;20283;-74
2022/10/14 09:47:49;;;;;;;;;;;19.60;67.20;;;;;;5076450;28;20383;-74
2022/10/14 09:50:22;;;;;;;;;;;19.50;67.30;;;;;;5077600;28;19919;-77
2022/10/14 09:52:51;;;;;;;;;;;19.50;67.60;;;;;;5095241;28;20321;-72
2022/10/14 09:55:19;;;;;;;;;;;19.50;68.20;;;;;;5095785;28;20069;-79
2022/10/14 09:57:46;;;;;;;;;;;19.50;68.30;;;;;;5095222;28;19966;-72
2022/10/14 10:00:24;;;;;;;;;;;19.50;68.80;;;;;;5095247;28;19912;-69
2022/10/14 10:02:51;;;;;;;;;;;19.40;69.30;;;;;;5094532;28;19919;-68
2022/10/14 10:05:18;;;;;;;;;;;19.40;69.60;;;;;;5094959;28;19998;-71
2022/10/14 10:08:00;;;;;;;;;;;19.30;69.50;;;;;;5094739;28;19997;-72
2022/10/14 10:10:29;;;;;;;;;;;19.20;69.90;;;;;;5095043;28;19912;-75
2022/10/14 10:12:58;;;;;;;;;;;19.20;70.10;;;;;;5095083;28;19912;-70
2022/10/14 10:15:24;;;;;;;;;;;19.20;70.90;;;;;;5094696;28;19920;-76
2022/10/14 10:17:51;;;;;;;;;;;19.10;70.80;;;;;;5094811;28;20346;-79
2022/10/14 10:20:27;;;;;;;;;;;19.10;71.40;;;;;;5095211;28;19947;-70
2022/10/14 10:22:55;;;;;;;;;;;19.00;71.00;;;;;;5064066;28;19909;-71
2022/10/14 10:25:25;;;;;;;;;;;19.00;71.10;;;;;;5092692;28;20539;-72
2022/10/14 10:27:52;;;;;;;;;;;19.00;71.30;;;;;;5093007;28;20408;-70
2022/10/14 10:30:19;;;;;;;;;;;19.00;71.80;;;;;;5093628;28;19916;-76
2022/10/14 10:32:53;;;;;;;;;;;18.90;72.10;;;;;;5093197;28;19908;-75
2022/10/14 10:35:38;;;;;;;;;;;18.80;71.80;;;;;;5094452;28;19912;-74
2022/10/14 10:38:23;;;;;;;;;;;18.80;72.50;;;;;;5094474;28;19920;-73
2022/10/14 10:41:10;;;;;;;;;;;18.80;72.70;;;;;;5093849;28;19957;-76
2022/10/14 10:43:42;;;;;;;;;;;18.80;72.70;;;;;;5094332;28;19966;-73
2022/10/14 10:46:29;;;;;;;;;;;18.80;74.10;;;;;;5094383;28;19922;-77
2022/10/14 10:49:13;;;;;;;;;;;18.70;73.20;;;;;;5094678;28;19912;-74
2022/10/14 10:51:40;;;;;;;;;;;18.70;73.50;;;;;;5094272;28;19915;-75
2022/10/14 10:54:30;;;;;;;;;;;18.60;74.80;;;;;;5092135;28;19915;-69
2022/10/14 10:57:03;;;;;;;;;;;18.60;75.40;;;;;;5092384;28;20011;-74
2022/10/14 10:59:47;;;;;;;;;;;18.60;74.60;;;;;;5093147;28;19912;-73
2022/10/14 11:02:32;;;;;;;;;;;18.50;75.40;;;;;;5093728;28;20384;-73
2022/10/14 11:05:13;;;;;;;;;;;18.50;75.60;;;;;;5092913;28;19912;-70
2022/10/14 11:13:44;;;;;;;;;;;18.30;76.20;;;;;;5092641;28;19934;-70
2022/10/14 11:16:31;;;;;;;;;;;18.30;76.60;;;;;;5073419;28;19914;-75
2022/10/14 11:19:04;;;;;;;;;;;18.30;76.50;;;;;;5073473;28;19913;-74
2022/10/14 11:21:49;;;;;;;;;;;18.20;76.90;;;;;;5073167;28;19954;-73
2022/10/14 11:24:31;;;;;;;;;;;18.10;77.20;;;;;;5084174;28;20337;-70
2022/10/14 11:27:01;;;;;;;;;;;18.10;77.60;;;;;;5084545;28;20012;-71
2022/10/14 11:29:28;;;;;;;;;;;18.10;78.40;;;;;;5092953;28;19961;-71
2022/10/14 11:32:03;;;;;;;;;;;18.00;78.50;;;;;;5092640;28;20383;-71
2022/10/14 11:34:41;;;;;;;;;;;18.00;79.70;;;;;;5092175;28;19920;-71
2022/10/14 11:37:17;;;;;;;;;;;17.90;79.60;;;;;;5092189;28;19971;-71
2022/10/14 11:39:44;;;;;;;;;;;17.90;80.20;;;;;;5091406;28;19935;-73
2022/10/14 11:42:12;;;;;;;;;;;17.80;80.80;;;;;;5082615;28;20398;-70
2022/10/14 11:44:42;;;;;;;;;;;17.70;80.50;;;;;;5083360;28;20432;-71
2022/10/14 11:47:12;;;;;;;;;;;17.70;80.80;;;;;;5082740;28;19923;-71
2022/10/14 11:49:45;;;;;;;;;;;17.60;80.50;;;;;;5083597;28;20253;-69
2022/10/14 11:52:16;;;;;;;;;;;17.60;80.60;;;;;;5082224;28;19963;-71
2022/10/14 11:55:03;;;;;;;;;;;17.50;81.20;;;;;;5064975;28;19942;-69
2022/10/14 11:57:31;;;;;;;;;;;17.50;82.30;;;;;;5084015;28;19920;-71
2022/10/14 12:00:01;;;;;;;;;;;17.40;82.10;;;;;;5067708;28;20627;-72
2022/10/14 12:02:35;;;;;;;;;;;17.40;81.60;;;;;;5080253;28;19916;-71
2022/10/14 12:05:20;;;;;;;;;;;17.40;83.00;;;;;;5084716;28;20284;-73
2022/10/14 12:07:50;;;;;;;;;;;17.30;82.50;;;;;;5081731;28;19970;-71
2022/10/14 12:10:26;;;;;;;;;;;17.30;82.70;;;;;;5083137;28;19961;-70
2022/10/14 12:12:54;;;;;;;;;;;17.30;83.20;;;;;;5082853;28;19932;-70
2022/10/14 12:15:22;;;;;;;;;;;17.20;84.60;;;;;;5089198;28;19999;-71
2022/10/14 12:17:48;;;;;;;;;;;17.20;84.90;;;;;;5091940;28;19916;-71
2022/10/14 12:20:25;;;;;;;;;;;17.10;84.50;;;;;;5090591;28;19912;-72
2022/10/14 12:22:52;;;;;;;;;;;17.00;84.40;;;;;;5091431;28;20555;-72
2022/10/14 12:25:21;;;;;;;;;;;17.00;85.00;;;;;;5084953;28;19920;-71
2022/10/14 12:27:49;;;;;;;;;;;17.00;86.10;;;;;;5082476;28;20002;-72
2022/10/14 12:30:34;;;;;;;;;;;17.00;85.90;;;;;;5079916;28;19987;-73
2022/10/14 12:33:03;;;;;;;;;;;17.00;86.70;;;;;;5089243;28;19909;-73
2022/10/14 12:35:57;;;;;;;;;;;16.80;86.80;;;;;;5065823;28;19955;-71
2022/10/14 12:38:25;;;;;;;;;;;16.80;87.40;;;;;;5063570;28;20319;-71
2022/10/14 12:40:51;;;;;;;;;;;16.80;88.10;;;;;;5082029;28;19971;-72
2022/10/14 12:43:23;;;;;;;;;;;16.70;88.30;;;;;;5083350;28;19919;-72
2022/10/14 12:46:09;;;;;;;;;;;16.60;88.90;;;;;;5084132;28;20219;-73
2022/10/14 12:48:38;;;;;;;;;;;16.60;88.80;;;;;;5091074;28;19908;-73
2022/10/14 12:51:07;;;;;;;;;;;16.60;89.30;;;;;;5073526;28;19947;-73
2022/10/14 12:53:34;;;;;;;;;;;16.60;90.00;;;;;;5088047;28;19916;-73
2022/10/14 12:56:03;;;;;;;;;;;16.60;90.00;;;;;;5088393;28;19908;-73
2022/10/14 12:58:35;;;;;;;;;;;16.50;88.80;;;;;;5089550;28;19924;-73
2022/10/14 13:01:14;;;;;;;;;;;16.40;87.70;;;;;;5092272;28;19908;-71
2022/10/14 13:03:53;;;;;;;;;;;16.40;87.50;;;;;;5092065;28;20360;-71
2022/10/14 13:06:45;;;;;;;;;;;16.40;86.80;;;;;;5091730;28;19999;-70
2022/10/14 13:09:12;;;;;;;;;;;16.50;87.30;;;;;;5087706;28;20018;-73
2022/10/14 13:11:40;;;;;;;;;;;16.50;87.40;;;;;;5092147;28;19912;-73
2022/10/14 13:14:26;;;;;;;;;;;16.60;87.10;;;;;;5091817;28;19965;-73
2022/10/14 13:16:54;;;;;;;;;;;16.60;86.20;;;;;;5091386;28;19936;-73
2022/10/14 13:19:33;;;;;;;;;;;16.60;86.50;;;;;;5091819;28;20430;-72
2022/10/14 13:22:03;;;;;;;;;;;16.50;85.60;;;;;;5092093;28;19923;-72
2022/10/14 13:24:38;;;;;;;;;;;16.60;86.60;;;;;;5091022;28;19915;-68
2022/10/14 13:27:14;;;;;;;;;;;16.60;85.20;;;;;;5091947;28;19961;-71
2022/10/14 13:30:12;;;;;;;;;;;16.60;86.90;;;;;;5091891;28;19908;-72
2022/10/14 13:32:59;;;;;;;;;;;16.60;85.70;;;;;;5068115;28;19919;-71
2022/10/14 13:35:28;;;;;;;;;;;16.60;85.60;;;;;;5091623;28;19936;-69
2022/10/14 13:37:58;;;;;;;;;;;16.70;85.30;;;;;;5091750;28;19920;-72
2022/10/14 13:40:33;;;;;;;;;;;16.70;86.70;;;;;;5091226;28;20066;-72
2022/10/14 13:43:01;;;;;;;;;;;16.70;87.00;;;;;;5092215;28;19908;-72
2022/10/14 13:45:35;;;;;;;;;;;16.60;87.00;;;;;;5091913;28;20427;-72
2022/10/14 13:48:02;;;;;;;;;;;16.50;87.30;;;;;;5091956;28;19915;-69
2022/10/14 13:50:35;;;;;;;;;;;16.50;88.00;;;;;;5073484;28;19919;-71
2022/10/14 13:53:14;;;;;;;;;;;16.50;89.30;;;;;;5091272;28;19912;-72
2022/10/14 13:55:45;;;;;;;;;;;16.40;89.30;;;;;;5091833;28;19908;-72
2022/10/14 13:58:15;;;;;;;;;;;16.30;87.80;;;;;;5092970;28;19963;-71
2022/10/14 14:00:45;;;;;;;;;;;16.30;88.20;;;;;;5095766;28;19908;-72
2022/10/14 14:03:30;;;;;;;;;;;16.20;88.30;;;;;;5095494;28;19908;-71
2022/10/14 14:05:57;;;;;;;;;;;16.20;88.00;;;;;;5095174;28;19908;-72
2022/10/14 14:08:26;;;;;;;;;;;16.10;88.00;;;;;;5095429;28;19915;-72
2022/10/14 14:10:54;;;;;;;;;;;16.10;88.40;;;;;;5095801;28;19909;-71
2022/10/14 14:13:20;;;;;;;;;;;16.10;88.30;;;;;;5095428;28;19960;-71
2022/10/14 14:15:51;;;;;;;;;;;16.10;88.40;;;;;;5095323;28;19908;-71
2022/10/14 14:18:44;;;;;;;;;;;16.10;88.70;;;;;;5094821;28;20534;-72
2022/10/14 14:21:12;;;;;;;;;;;16.10;88.70;;;;;;5090045;28;20379;-70
2022/10/14 14:23:51;;;;;;;;;;;16.10;89.10;;;;;;5094904;28;19915;-69
2022/10/14 14:26:18;;;;;;;;;;;16.00;89.90;;;;;;5076673;28;20036;-72
2022/10/14 14:28:48;;;;;;;;;;;16.00;89.40;;;;;;5094020;28;19913;-71
2022/10/14 14:31:17;;;;;;;;;;;15.90;89.90;;;;;;5094531;28;19912;-69
2022/10/14 14:33:44;;;;;;;;;;;15.90;90.10;;;;;;5094467;28;19931;-71
2022/10/14 14:36:13;;;;;;;;;;;15.90;90.10;;;;;;5094862;28;20264;-71
2022/10/14 14:38:44;;;;;;;;;;;15.90;89.90;;;;;;5094479;28;19957;-71